»·PEaware :: ASA327 KSEA-KBOI

ASA327 :: KSEA-KBOI

FLIGHT INFORMATION

Flight Status: Arrived
Operator:
Alaska Airlines
More flights by this operator :: More flights under this callsign
Pilot: Jim M. (18055)
Aircraft: BOEING 737-800
(B738)
More flights by this aircraft type
Origin: KSEA Seattle-Tacoma Intl
United States
Destination: KBOI Boise Air Terminal/Gowen
United States
More flights between these airports :: More routes between these airports
Route: SUMMA1 SUMMA J54 BKE DCT HOSTS PARMO3
File this flight plan on PilotEdge
Remarks:
Altitude:
(Current/Filed)
37,000ft
Speed:
(Current/Filed)
450kts
Departed: 04-Sep-18 12:52 PM
Arrived: 04-Sep-18 01:55 PM
Distance/Time
Traveled:
346nm/1:03
Distance/Time
To Go:
Arrived

Flight Plot

Page will automatically refresh every two minutes.

Flight plan parsing failed; only flown route is shown


Map Options




Map Legend


Flown Route
Filed Route
Departure Airport
Arrival Airport
Navaid (VOR, NDB)
Fix

Horizontal Profiles

Position Reports

Time Latitude Longitude Heading Altitude Ground
Speed
04-Sep-18 12:14 47.447442 -122.301575 335 441ft 0kts
04-Sep-18 12:15 47.447442 -122.301575 335 441ft 0kts
04-Sep-18 12:17 47.447442 -122.301575 335 441ft 0kts
04-Sep-18 12:17 47.447442 -122.301575 335 441ft 0kts
04-Sep-18 12:18 47.447442 -122.301575 335 441ft 0kts
04-Sep-18 12:19 47.447442 -122.301575 335 441ft 0kts
04-Sep-18 12:20 47.447442 -122.301575 335 441ft 0kts
04-Sep-18 12:21 47.447442 -122.301575 335 441ft 0kts
04-Sep-18 12:22 47.447442 -122.301575 335 441ft 0kts
04-Sep-18 12:23 47.447442 -122.301575 335 441ft 0kts
04-Sep-18 12:24 47.447442 -122.301575 335 441ft 0kts
04-Sep-18 12:25 47.447442 -122.301575 335 441ft 0kts
04-Sep-18 12:26 47.447442 -122.301575 335 441ft 0kts
04-Sep-18 12:27 47.447442 -122.301575 335 441ft 0kts
04-Sep-18 12:28 47.447442 -122.301575 335 441ft 0kts
04-Sep-18 12:29 47.447442 -122.301575 335 441ft 0kts
04-Sep-18 12:30 47.447442 -122.301575 335 441ft 0kts
04-Sep-18 12:31 47.447442 -122.301575 335 441ft 0kts
04-Sep-18 12:32 47.447442 -122.301575 335 441ft 0kts
04-Sep-18 12:33 47.447442 -122.301575 335 441ft 0kts
04-Sep-18 12:34 47.447442 -122.301575 335 441ft 0kts
04-Sep-18 12:35 47.447442 -122.301575 335 441ft 0kts
04-Sep-18 12:36 47.447442 -122.301575 335 441ft 0kts
04-Sep-18 12:37 47.447442 -122.301575 335 441ft 0kts
04-Sep-18 12:38 47.447442 -122.301575 335 441ft 0kts
04-Sep-18 12:39 47.447421 -122.301561 335 441ft 1kts
04-Sep-18 12:40 47.446986 -122.300973 269 441ft 2kts
04-Sep-18 12:41 47.447118 -122.300459 244 441ft 0kts
04-Sep-18 12:42 47.447117 -122.300460 244 441ft 0kts
04-Sep-18 12:43 47.447117 -122.300462 244 441ft 0kts
04-Sep-18 12:44 47.447116 -122.300466 244 441ft 0kts
04-Sep-18 12:45 47.447202 -122.303116 309 441ft 6kts
04-Sep-18 12:46 47.447646 -122.304520 272 441ft 0kts
04-Sep-18 12:47 47.446681 -122.306269 168 441ft 13kts
04-Sep-18 12:48 47.442427 -122.306342 180 441ft 15kts
04-Sep-18 12:49 47.438012 -122.306366 180 441ft 17kts
04-Sep-18 12:50 47.434073 -122.305564 178 441ft 17kts
04-Sep-18 12:51 47.431172 -122.305978 219 441ft 8kts
04-Sep-18 12:52 47.431032 -122.306537 279 441ft 3kts
04-Sep-18 12:53 47.438798 -122.308034 0 441ft 124kts
04-Sep-18 12:54 47.483927 -122.307996 8 3066ft 190kts
04-Sep-18 12:55 47.549416 -122.309681 359 5325ft 266kts
04-Sep-18 12:56 47.609014 -122.256841 76 8758ft 281kts
04-Sep-18 12:57 47.616195 -122.135889 94 11474ft 322kts
04-Sep-18 12:58 47.551910 -122.037050 170 13061ft 382kts
04-Sep-18 12:59 47.443684 -122.031388 181 16012ft 399kts
04-Sep-18 13:00 47.329939 -122.026807 181 18673ft 417kts
04-Sep-18 13:01 47.211885 -122.019679 181 21010ft 433kts
04-Sep-18 13:02 47.089565 -122.011566 181 23071ft 447kts
04-Sep-18 13:03 46.963655 -122.002932 181 24887ft 458kts
04-Sep-18 13:04 46.847550 -121.994989 181 26389ft 468kts
04-Sep-18 13:05 46.720584 -121.986578 181 27816ft 477kts
04-Sep-18 13:06 46.588393 -121.969617 157 29247ft 495kts
04-Sep-18 13:07 46.506585 -121.815187 100 31029ft 503kts
04-Sep-18 13:08 46.499511 -121.615733 111 32591ft 501kts
04-Sep-18 13:09 46.426695 -121.445641 125 34198ft 495kts
04-Sep-18 13:10 46.350184 -121.278437 124 35513ft 496kts
04-Sep-18 13:11 46.273340 -121.112674 125 36706ft 497kts
04-Sep-18 13:12 46.199300 -120.943148 122 37157ft 498kts
04-Sep-18 13:13 46.128649 -120.773455 121 37155ft 493kts
04-Sep-18 13:14 46.058466 -120.604072 121 37152ft 492kts
04-Sep-18 13:15 45.988083 -120.434795 122 37142ft 491kts
04-Sep-18 13:16 45.918155 -120.267517 122 37138ft 489kts
04-Sep-18 13:17 45.847872 -120.099515 122 37136ft 490kts
04-Sep-18 13:18 45.777106 -119.932585 122 37138ft 490kts
04-Sep-18 13:20 45.705964 -119.765855 122 37136ft 490kts
04-Sep-18 13:21 45.634686 -119.600158 122 37138ft 489kts
04-Sep-18 13:22 45.563081 -119.434834 123 37141ft 489kts
04-Sep-18 13:23 45.491905 -119.269832 122 37124ft 488kts
04-Sep-18 13:24 45.420498 -119.105410 123 37116ft 488kts
04-Sep-18 13:25 45.348683 -118.941401 123 37117ft 488kts
04-Sep-18 13:26 45.276629 -118.777888 123 37131ft 488kts
04-Sep-18 13:27 45.204485 -118.615134 123 37157ft 488kts
04-Sep-18 13:28 45.132022 -118.452591 123 37156ft 488kts
04-Sep-18 13:29 45.059255 -118.290285 123 37139ft 488kts
04-Sep-18 13:30 44.986726 -118.128748 123 37132ft 487kts
04-Sep-18 13:31 44.913670 -117.967731 124 37129ft 487kts
04-Sep-18 13:32 44.831226 -117.818048 149 36270ft 479kts
04-Sep-18 13:33 44.707292 -117.762338 170 35279ft 469kts
04-Sep-18 13:34 44.579700 -117.721534 170 34279ft 470kts
04-Sep-18 13:35 44.452122 -117.679867 169 32276ft 470kts
04-Sep-18 13:36 44.324603 -117.638164 169 29152ft 467kts
04-Sep-18 13:37 44.199881 -117.597453 169 26670ft 451kts
04-Sep-18 13:38 44.079832 -117.558610 168 24249ft 436kts
04-Sep-18 13:39 43.977206 -117.482662 125 21798ft 431kts
04-Sep-18 13:40 43.925071 -117.334663 114 19343ft 420kts
04-Sep-18 13:41 43.878372 -117.188240 114 16968ft 409kts
04-Sep-18 13:42 43.832738 -117.046324 115 14767ft 396kts
04-Sep-18 13:43 43.789887 -116.913972 115 13854ft 357kts
04-Sep-18 13:44 43.747157 -116.797354 127 12962ft 328kts
04-Sep-18 13:45 43.690454 -116.700108 131 11653ft 320kts
04-Sep-18 13:46 43.634995 -116.605654 130 10362ft 313kts
04-Sep-18 13:47 43.581794 -116.514819 129 9371ft 299kts
04-Sep-18 13:48 43.541767 -116.417318 114 8107ft 289kts
04-Sep-18 13:49 43.509065 -116.321467 115 7317ft 256kts
04-Sep-18 13:50 43.479842 -116.236682 115 6990ft 240kts
04-Sep-18 13:51 43.452261 -116.156583 115 6993ft 215kts
04-Sep-18 13:52 43.448984 -116.080066 81 6791ft 194kts
04-Sep-18 13:53 43.480219 -116.025315 21 6000ft 188kts
04-Sep-18 13:54 43.513546 -116.070176 294 5087ft 197kts
04-Sep-18 13:55 43.531587 -116.132103 302 4264ft 156kts
04-Sep-18 13:56 43.551532 -116.183267 295 3194ft 147kts
04-Sep-18 13:57 43.565125 -116.222128 293 2879ft 3kts
04-Sep-18 13:58 43.566497 -116.222095 81 2879ft 5kts
04-Sep-18 13:59 43.567270 -116.221257 26 2879ft 0kts
04-Sep-18 14:00 43.567288 -116.221244 26 2879ft 0kts
04-Sep-18 14:01 43.567288 -116.221244 26 2879ft 0kts

Navigation Log

Ident Type
Flight plan parsing failed, navigation log unavailable